Anthony, Kansas
Current Conditions -  °F | °C
As of 1:15 AM on Thursday 18 Dec 2014 (Local Time) from KAVK Reporting Station
Light Rain Light Rain  
Wind Chill: -4°   Ceiling: 200
Heat Index:   Visibility: 0.25mi
Dew Point:   Wind: 8mph
Humidity: 100%   Direction: 90°E
Pressure: 30.12"   Gusts: NA
Location:  37.15°N, 98.03°W
Report Text: KAVK 180715Z AUTO 09007KT 1/4SM -RA OVC002 00/00 A3012 RMK AO2
Loading
Personal Weather Stations






























Interactive Weather Map New forecast layout! Learn more

10-Day Weather Forecast

Advertisements
Track Severe Weather on mobile